createdAt,value
2022-12-15T00:01:30.949Z,19.63
2022-12-15T00:04:30.710Z,21.58
2022-12-15T00:07:32.096Z,19.50
2022-12-15T00:10:32.355Z,18.85
2022-12-15T00:13:32.748Z,19.23
2022-12-15T00:16:33.112Z,18.85
2022-12-15T00:19:33.214Z,20.20
2022-12-15T00:22:34.678Z,18.90
2022-12-15T00:25:34.552Z,19.55
2022-12-15T00:28:34.815Z,21.48
2022-12-15T00:31:34.635Z,20.52
2022-12-15T00:34:34.809Z,19.10
2022-12-15T00:37:36.310Z,18.10
2022-12-15T00:40:18.916Z,23.65
2022-12-15T00:43:01.703Z,17.80
2022-12-15T00:46:01.900Z,17.92
2022-12-15T00:48:44.980Z,19.80
2022-12-15T00:51:45.507Z,18.27
2022-12-15T00:54:46.593Z,17.20
2022-12-15T00:57:46.729Z,17.92
2022-12-15T01:00:47.215Z,18.45
2022-12-15T01:03:47.531Z,15.70
2022-12-15T01:06:47.783Z,17.92
2022-12-15T01:09:48.972Z,16.65
2022-12-15T01:12:48.993Z,21.38
2022-12-15T01:15:49.620Z,20.75
2022-12-15T01:18:51.372Z,17.67
2022-12-15T01:21:33.984Z,18.05
2022-12-15T01:24:16.595Z,20.77
2022-12-15T01:27:00.725Z,18.50
2022-12-15T01:29:43.545Z,20.42
2022-12-15T01:32:27.621Z,19.25
2022-12-15T01:35:11.602Z,21.30
2022-12-15T01:37:54.228Z,16.13
2022-12-15T01:40:45.936Z,20.83
2022-12-15T01:43:31.579Z,17.52
2022-12-15T01:46:15.236Z,15.95
2022-12-15T01:49:00.874Z,17.80
2022-12-15T01:51:45.452Z,18.50
2022-12-15T01:54:30.295Z,18.55
2022-12-15T01:57:15.562Z,18.33
2022-12-15T02:00:01.976Z,18.60
2022-12-15T02:02:44.968Z,18.50
2022-12-15T02:05:28.139Z,17.85
2022-12-15T02:08:11.167Z,19.17
2022-12-15T02:11:01.119Z,19.42
2022-12-15T02:13:50.349Z,18.75
2022-12-15T02:16:39.862Z,18.05
2022-12-15T02:19:33.171Z,15.52
2022-12-15T02:22:22.277Z,17.98
2022-12-15T02:25:20.013Z,14.20
2022-12-15T02:28:05.097Z,15.35
2022-12-15T02:31:12.363Z,15.57
2022-12-15T02:33:58.243Z,17.88
2022-12-15T02:36:42.846Z,15.45
2022-12-15T02:39:26.332Z,16.75
2022-12-15T02:42:10.414Z,14.98
2022-12-15T02:44:54.890Z,13.38
2022-12-15T02:47:46.239Z,14.40
2022-12-15T02:50:45.123Z,14.52
2022-12-15T02:53:38.799Z,16.30
2022-12-15T02:56:26.972Z,14.80
2022-12-15T02:59:11.945Z,15.00
2022-12-15T03:01:56.375Z,15.15
2022-12-15T03:04:40.940Z,14.45
2022-12-15T03:07:24.423Z,13.68
2022-12-15T03:10:08.031Z,13.90
2022-12-15T03:12:51.321Z,15.30
2022-12-15T03:15:35.757Z,12.43
2022-12-15T03:18:18.553Z,16.30
2022-12-15T03:21:02.449Z,16.50
2022-12-15T03:23:47.462Z,15.75
2022-12-15T03:26:30.032Z,12.65
2022-12-15T03:29:12.644Z,14.23
2022-12-15T03:31:55.262Z,12.80
2022-12-15T03:34:37.917Z,13.25
2022-12-15T03:37:21.847Z,12.95
2022-12-15T03:40:04.601Z,13.05
2022-12-15T03:42:49.979Z,11.55
2022-12-15T03:45:32.646Z,13.93
2022-12-15T03:48:15.290Z,13.88
2022-12-15T03:50:59.116Z,13.57
2022-12-15T03:53:43.027Z,14.30
2022-12-15T03:56:25.761Z,10.73
2022-12-15T03:59:08.311Z,15.00
2022-12-15T04:01:51.177Z,13.60
2022-12-15T04:04:33.828Z,12.85
2022-12-15T04:07:16.548Z,16.00
2022-12-15T04:10:00.442Z,12.45
2022-12-15T04:12:43.024Z,13.38
2022-12-15T04:15:25.586Z,16.10
2022-12-15T04:18:09.933Z,12.45
2022-12-15T04:20:52.621Z,13.77
2022-12-15T04:23:35.208Z,15.55
2022-12-15T04:26:36.383Z,12.55
2022-12-15T04:29:36.352Z,14.40
2022-12-15T04:32:36.605Z,12.73
2022-12-15T04:35:37.209Z,17.85
2022-12-15T04:38:37.574Z,13.40
2022-12-15T04:41:39.695Z,12.48
2022-12-15T04:44:39.895Z,16.23
2022-12-15T04:47:40.133Z,11.82
2022-12-15T04:50:40.229Z,14.77
2022-12-15T04:53:40.664Z,13.85
2022-12-15T04:56:42.143Z,14.80
2022-12-15T04:59:42.116Z,14.68
2022-12-15T05:02:42.332Z,13.07
2022-12-15T05:05:42.209Z,13.93
2022-12-15T05:08:42.129Z,12.88
2022-12-15T05:11:43.520Z,12.60
2022-12-15T05:14:43.499Z,12.95
2022-12-15T05:17:43.452Z,13.27
2022-12-15T05:20:43.418Z,15.35
2022-12-15T05:23:43.620Z,13.63
2022-12-15T05:26:50.703Z,14.73
2022-12-15T05:29:52.522Z,12.70
2022-12-15T05:32:35.116Z,16.10
2022-12-15T05:35:17.696Z,11.02
2022-12-15T05:38:00.279Z,13.43
2022-12-15T05:40:43.015Z,15.55
2022-12-15T05:43:27.226Z,12.40
2022-12-15T05:46:09.879Z,11.32
2022-12-15T05:48:52.584Z,14.43
2022-12-15T05:51:38.033Z,17.98
2022-12-15T05:54:21.039Z,11.15
2022-12-15T05:57:03.597Z,15.18
2022-12-15T05:59:47.563Z,14.60
2022-12-15T06:02:30.279Z,12.68
2022-12-15T06:05:12.922Z,16.60
2022-12-15T06:07:56.167Z,13.82
2022-12-15T06:10:38.715Z,15.15
2022-12-15T06:13:21.385Z,15.77
2022-12-15T06:16:06.033Z,14.57
2022-12-15T06:18:50.600Z,12.48
2022-12-15T06:21:35.195Z,14.68
2022-12-15T06:24:17.804Z,11.98
2022-12-15T06:27:00.393Z,16.88
2022-12-15T06:29:42.993Z,13.73
2022-12-15T06:32:26.915Z,17.67
2022-12-15T06:35:09.834Z,13.65
2022-12-15T06:37:52.421Z,14.10
2022-12-15T06:40:38.259Z,12.55
2022-12-15T06:43:20.977Z,12.52
2022-12-15T06:46:03.861Z,9.90
2022-12-15T06:48:48.149Z,14.50
2022-12-15T06:51:30.912Z,12.43
2022-12-15T06:54:13.653Z,11.25
2022-12-15T06:56:56.210Z,14.07
2022-12-15T06:59:39.180Z,13.55
2022-12-15T07:02:28.488Z,15.23
2022-12-15T07:05:12.919Z,15.73
2022-12-15T07:07:55.535Z,14.68
2022-12-15T07:10:39.196Z,13.60
2022-12-15T07:13:21.790Z,13.55
2022-12-15T07:16:06.046Z,13.35
2022-12-15T07:18:48.734Z,16.05
2022-12-15T07:21:32.913Z,12.05
2022-12-15T07:24:15.492Z,12.07
2022-12-15T07:26:58.121Z,13.65
2022-12-15T07:29:40.739Z,16.67
2022-12-15T07:32:23.327Z,16.33
2022-12-15T07:35:07.696Z,9.80
2022-12-15T07:37:51.865Z,15.45
2022-12-15T07:40:34.528Z,14.32
2022-12-15T07:43:17.858Z,15.93
2022-12-15T07:46:00.539Z,12.63
2022-12-15T07:48:43.299Z,13.55
2022-12-15T07:51:25.995Z,14.93
2022-12-15T07:54:11.365Z,14.70
2022-12-15T07:56:54.036Z,16.13
2022-12-15T07:59:37.123Z,13.50
2022-12-15T08:02:19.919Z,15.32
2022-12-15T08:05:02.833Z,15.60
2022-12-15T08:07:45.484Z,16.27
2022-12-15T08:10:29.502Z,13.10
2022-12-15T08:13:25.974Z,11.93
2022-12-15T08:16:15.151Z,15.75
2022-12-15T08:18:58.198Z,14.15
2022-12-15T08:21:41.446Z,15.27
2022-12-15T08:24:24.095Z,14.32
2022-12-15T08:27:08.202Z,14.15
2022-12-15T08:29:52.177Z,16.35
2022-12-15T08:32:35.287Z,16.15
2022-12-15T08:35:46.782Z,11.98
2022-12-15T08:38:20.735Z,12.77
2022-12-15T08:41:07.830Z,16.60
2022-12-15T08:43:52.468Z,13.02
2022-12-15T08:46:35.879Z,14.80
2022-12-15T08:49:22.181Z,12.75
2022-12-15T08:52:05.234Z,13.65
2022-12-15T08:54:48.159Z,14.05
2022-12-15T08:57:31.405Z,15.00
2022-12-15T09:00:16.074Z,14.80
2022-12-15T09:02:59.977Z,15.07
2022-12-15T09:05:42.693Z,15.30
2022-12-15T09:08:25.319Z,13.98
2022-12-15T09:11:08.444Z,14.02
2022-12-15T09:13:51.158Z,13.82
2022-12-15T09:16:35.357Z,13.38
2022-12-15T09:19:18.281Z,13.25
2022-12-15T09:22:02.235Z,11.48
2022-12-15T09:24:45.109Z,12.77
2022-12-15T09:27:28.913Z,12.80
2022-12-15T09:30:11.909Z,13.43
2022-12-15T09:32:55.948Z,11.98
2022-12-15T09:35:38.679Z,12.65
2022-12-15T09:38:21.634Z,13.68
2022-12-15T09:41:09.100Z,12.95
2022-12-15T09:43:54.590Z,12.00
2022-12-15T09:46:44.145Z,13.75
2022-12-15T09:49:40.183Z,14.65
2022-12-15T09:52:24.762Z,12.60
2022-12-15T09:55:16.587Z,12.30
2022-12-15T09:58:06.073Z,12.63
2022-12-15T10:00:55.864Z,14.18
2022-12-15T10:03:45.626Z,12.43
2022-12-15T10:06:33.811Z,13.80
2022-12-15T10:09:19.269Z,13.00
2022-12-15T10:12:03.887Z,11.55
2022-12-15T10:14:50.878Z,11.90
2022-12-15T10:17:40.482Z,13.45
2022-12-15T10:20:26.261Z,12.63
2022-12-15T10:23:13.048Z,10.40
2022-12-15T10:25:59.420Z,16.20
2022-12-15T10:28:51.645Z,10.75
2022-12-15T10:31:37.697Z,9.63
2022-12-15T10:34:25.098Z,11.13
2022-12-15T10:37:13.586Z,9.30
2022-12-15T10:39:57.799Z,13.43
2022-12-15T10:42:46.739Z,11.07
2022-12-15T10:45:33.168Z,10.63
2022-12-15T10:48:19.934Z,9.75
2022-12-15T10:51:22.245Z,12.27
2022-12-15T10:54:06.437Z,10.38
2022-12-15T10:56:51.981Z,11.45
2022-12-15T10:59:35.522Z,9.55
2022-12-15T11:02:27.979Z,9.02
2022-12-15T11:05:16.835Z,11.75
2022-12-15T11:08:14.779Z,12.88
2022-12-15T11:11:15.823Z,11.82
2022-12-15T11:14:07.269Z,11.15
2022-12-15T11:16:51.490Z,9.45
2022-12-15T11:19:37.306Z,10.60
2022-12-15T11:22:24.599Z,9.63
2022-12-15T11:25:14.529Z,11.32
2022-12-15T11:27:58.366Z,9.48
2022-12-15T11:30:44.874Z,10.30
2022-12-15T11:33:28.056Z,11.63
2022-12-15T11:36:14.642Z,11.77
2022-12-15T11:39:01.531Z,11.63
2022-12-15T11:41:48.622Z,12.43
2022-12-15T11:44:38.043Z,10.98
2022-12-15T11:47:27.707Z,12.15
2022-12-15T11:50:15.257Z,10.85
2022-12-15T11:53:20.222Z,10.38
2022-12-15T11:56:08.382Z,9.88
2022-12-15T11:58:58.012Z,8.32
2022-12-15T12:01:58.877Z,11.85
2022-12-15T12:04:56.202Z,10.70
2022-12-15T12:07:42.458Z,9.73
2022-12-15T12:10:30.543Z,10.63
2022-12-15T12:13:18.069Z,8.93
2022-12-15T12:16:10.319Z,8.40
2022-12-15T12:18:55.787Z,11.77
2022-12-15T12:21:41.731Z,10.80
2022-12-15T12:24:26.267Z,10.13
2022-12-15T12:27:12.298Z,9.18
2022-12-15T12:29:59.272Z,11.18
2022-12-15T12:32:45.969Z,9.10
2022-12-15T12:35:33.635Z,10.82
2022-12-15T12:38:20.252Z,9.68
2022-12-15T12:41:04.824Z,9.77
2022-12-15T12:43:50.247Z,9.20
2022-12-15T12:46:35.185Z,10.32
2022-12-15T12:49:26.596Z,9.02
2022-12-15T12:52:16.092Z,10.88
2022-12-15T12:55:01.356Z,9.63
2022-12-15T12:57:44.882Z,9.70
2022-12-15T13:00:28.320Z,7.60
2022-12-15T13:03:17.352Z,7.38
2022-12-15T13:06:00.019Z,9.73
2022-12-15T13:08:51.814Z,9.80
2022-12-15T13:11:58.258Z,7.15
2022-12-15T13:14:48.388Z,9.82
2022-12-15T13:17:40.165Z,6.88
2022-12-15T13:20:25.782Z,10.00
2022-12-15T13:23:27.526Z,9.15
2022-12-15T13:26:19.081Z,10.43
2022-12-15T13:29:01.728Z,10.63
2022-12-15T13:31:49.129Z,10.40
2022-12-15T13:34:38.665Z,10.20
2022-12-15T13:37:36.300Z,9.85
2022-12-15T13:40:26.391Z,12.05
2022-12-15T13:43:11.421Z,7.88
2022-12-15T13:45:56.200Z,10.23
2022-12-15T13:48:42.525Z,9.18
2022-12-15T13:51:27.617Z,7.20
2022-12-15T13:54:15.441Z,7.47
2022-12-15T13:57:02.169Z,10.25
2022-12-15T13:59:46.360Z,7.53
2022-12-15T14:02:32.885Z,8.43
2022-12-15T14:05:21.057Z,7.72
2022-12-15T14:08:04.038Z,10.13
2022-12-15T14:10:49.172Z,10.65
2022-12-15T14:13:36.537Z,7.55
2022-12-15T14:16:21.206Z,8.10
2022-12-15T14:19:05.218Z,8.23
2022-12-15T14:21:54.119Z,10.57
2022-12-15T14:24:43.313Z,9.05
2022-12-15T14:27:27.525Z,8.80
2022-12-15T14:30:13.947Z,7.95
2022-12-15T14:33:00.463Z,7.90
2022-12-15T14:35:44.324Z,8.85
2022-12-15T14:38:38.481Z,11.07
2022-12-15T14:41:22.197Z,8.27
2022-12-15T14:44:36.851Z,9.82
2022-12-15T14:47:17.128Z,10.25
2022-12-15T14:50:01.461Z,8.88
2022-12-15T14:52:45.152Z,8.73
2022-12-15T14:55:32.070Z,9.05
2022-12-15T14:58:25.724Z,8.95
2022-12-15T15:01:22.399Z,15.38
2022-12-15T15:04:06.086Z,13.55
2022-12-15T15:06:54.489Z,11.15
2022-12-15T15:09:40.208Z,10.00
2022-12-15T15:12:24.846Z,12.25
2022-12-15T15:15:09.125Z,9.73
2022-12-15T15:17:52.886Z,10.52
2022-12-15T15:20:35.958Z,8.68
2022-12-15T15:23:19.320Z,10.50
2022-12-15T15:26:08.765Z,8.68
2022-12-15T15:28:52.860Z,9.60
2022-12-15T15:31:41.249Z,8.48
2022-12-15T15:34:24.719Z,8.80
2022-12-15T15:37:16.505Z,8.73
2022-12-15T15:40:01.411Z,8.60
2022-12-15T15:42:45.359Z,9.32
2022-12-15T15:45:29.379Z,7.60
2022-12-15T15:48:15.171Z,9.02
2022-12-15T15:50:57.869Z,10.10
2022-12-15T15:53:41.025Z,11.05
2022-12-15T15:56:23.776Z,10.32
2022-12-15T15:59:10.891Z,7.90
2022-12-15T16:01:56.497Z,9.70
2022-12-15T16:04:42.085Z,7.25
2022-12-15T16:07:25.853Z,9.68
2022-12-15T16:10:13.488Z,10.13
2022-12-15T16:12:57.281Z,11.48
2022-12-15T16:15:40.025Z,8.55
2022-12-15T16:18:24.191Z,10.90
2022-12-15T16:21:07.770Z,8.05
2022-12-15T16:23:50.597Z,9.98
2022-12-15T16:26:34.034Z,8.25
2022-12-15T16:29:17.332Z,8.85
2022-12-15T16:32:00.250Z,8.75
2022-12-15T16:34:44.376Z,8.45
2022-12-15T16:37:28.229Z,10.23
2022-12-15T16:40:15.233Z,8.02
2022-12-15T16:42:59.129Z,10.63
2022-12-15T16:45:43.242Z,14.70
2022-12-15T16:48:26.112Z,11.10
2022-12-15T16:51:11.205Z,12.30
2022-12-15T16:53:53.875Z,11.27
2022-12-15T16:56:36.461Z,11.45
2022-12-15T16:59:36.166Z,8.52
2022-12-15T17:02:27.009Z,10.98
2022-12-15T17:05:10.488Z,9.43
2022-12-15T17:07:56.130Z,10.73
2022-12-15T17:10:38.918Z,9.32
2022-12-15T17:13:28.764Z,9.70
2022-12-15T17:16:16.498Z,10.57
2022-12-15T17:18:59.701Z,10.45
2022-12-15T17:21:45.420Z,10.32
2022-12-15T17:24:29.385Z,9.73
2022-12-15T17:27:13.010Z,10.40
2022-12-15T17:29:56.079Z,12.23
2022-12-15T17:32:38.836Z,9.57
2022-12-15T17:35:21.505Z,10.18
2022-12-15T17:38:04.137Z,12.80
2022-12-15T17:40:48.801Z,10.77
2022-12-15T17:43:35.782Z,12.18
2022-12-15T17:46:19.207Z,11.88
2022-12-15T17:49:01.858Z,13.23
2022-12-15T17:51:44.984Z,15.05
2022-12-15T17:54:27.570Z,9.68
2022-12-15T17:57:12.027Z,12.85
2022-12-15T17:59:54.934Z,10.45
2022-12-15T18:02:37.658Z,9.80
2022-12-15T18:05:21.202Z,11.38
2022-12-15T18:08:08.066Z,10.93
2022-12-15T18:10:51.676Z,11.43
2022-12-15T18:13:35.903Z,11.88
2022-12-15T18:16:18.761Z,9.40
2022-12-15T18:19:01.522Z,12.65
2022-12-15T18:21:44.355Z,9.48
2022-12-15T18:24:27.368Z,10.38
2022-12-15T18:27:17.418Z,11.15
2022-12-15T18:30:01.458Z,15.88
2022-12-15T18:32:44.450Z,12.70
2022-12-15T18:35:28.899Z,14.80
2022-12-15T18:38:14.264Z,13.52
2022-12-15T18:40:58.726Z,13.70
2022-12-15T18:43:42.333Z,14.60
2022-12-15T18:46:26.656Z,10.25
2022-12-15T18:49:11.268Z,15.27
2022-12-15T18:51:54.024Z,14.18
2022-12-15T18:54:36.922Z,13.32
2022-12-15T18:57:25.766Z,12.45
2022-12-15T19:00:16.672Z,12.05
2022-12-15T19:03:01.274Z,13.02
2022-12-15T19:05:44.219Z,12.27
2022-12-15T19:08:27.941Z,14.10
2022-12-15T19:11:14.267Z,11.73
2022-12-15T19:13:56.974Z,12.60
2022-12-15T19:16:53.559Z,11.90
2022-12-15T19:19:55.096Z,12.23
2022-12-15T19:22:37.770Z,14.40
2022-12-15T19:25:25.363Z,14.02
2022-12-15T19:28:13.791Z,11.82
2022-12-15T19:30:56.608Z,14.73
2022-12-15T19:33:39.863Z,15.27
2022-12-15T19:36:25.115Z,15.35
2022-12-15T19:39:08.005Z,17.92
2022-12-15T19:41:50.737Z,11.80
2022-12-15T19:44:33.564Z,16.67
2022-12-15T19:47:16.577Z,16.25
2022-12-15T19:49:59.344Z,14.15
2022-12-15T19:52:43.750Z,13.35
2022-12-15T19:55:27.970Z,12.75
2022-12-15T19:58:27.349Z,14.60
2022-12-15T20:01:12.501Z,18.17
2022-12-15T20:03:55.180Z,14.98
2022-12-15T20:06:38.563Z,18.27
2022-12-15T20:09:22.791Z,18.20
2022-12-15T20:12:05.786Z,19.58
2022-12-15T20:14:48.635Z,21.80
2022-12-15T20:17:31.314Z,18.42
2022-12-15T20:20:15.854Z,19.63
2022-12-15T20:22:59.748Z,19.02
2022-12-15T20:25:44.187Z,16.48
2022-12-15T20:28:28.253Z,16.92
2022-12-15T20:31:14.111Z,19.95
2022-12-15T20:33:57.227Z,16.30
2022-12-15T20:36:40.137Z,20.02
2022-12-15T20:39:26.563Z,18.42
2022-12-15T20:42:12.614Z,20.60
2022-12-15T20:44:55.242Z,17.80
2022-12-15T20:47:41.005Z,17.25
2022-12-15T20:50:25.684Z,16.42
2022-12-15T20:53:13.833Z,17.70
2022-12-15T20:55:57.075Z,20.13
2022-12-15T20:58:41.251Z,17.75
2022-12-15T21:01:25.735Z,17.48
2022-12-15T21:04:17.686Z,17.20
2022-12-15T21:07:00.690Z,19.05
2022-12-15T21:09:43.694Z,16.50
2022-12-15T21:12:27.528Z,17.83
2022-12-15T21:15:18.943Z,18.05
2022-12-15T21:18:29.489Z,17.40
2022-12-15T21:21:07.469Z,16.90
2022-12-15T21:23:50.848Z,18.75
2022-12-15T21:26:34.284Z,14.38
2022-12-15T21:29:17.820Z,15.45
2022-12-15T21:32:01.788Z,16.27
2022-12-15T21:34:44.512Z,18.70
2022-12-15T21:37:28.904Z,17.77
2022-12-15T21:40:16.996Z,15.35
2022-12-15T21:42:59.671Z,16.15
2022-12-15T21:45:42.457Z,20.08
2022-12-15T21:48:44.064Z,18.02
2022-12-15T21:51:27.414Z,20.92
2022-12-15T21:54:14.955Z,19.10
2022-12-15T21:56:57.730Z,22.92
2022-12-15T21:59:40.602Z,20.00
2022-12-15T22:02:25.058Z,22.52
2022-12-15T22:05:15.820Z,19.48
2022-12-15T22:07:59.049Z,18.08
2022-12-15T22:10:41.750Z,19.33
2022-12-15T22:13:24.423Z,16.33
2022-12-15T22:16:07.222Z,19.02
2022-12-15T22:18:51.453Z,17.20
2022-12-15T22:21:35.730Z,19.33
2022-12-15T22:24:18.736Z,16.35
2022-12-15T22:27:01.406Z,19.25
2022-12-15T22:29:44.218Z,20.27
2022-12-15T22:32:26.830Z,19.55
2022-12-15T22:35:13.611Z,17.05
2022-12-15T22:37:57.602Z,17.67
2022-12-15T22:40:40.290Z,15.30
2022-12-15T22:43:24.586Z,16.08
2022-12-15T22:46:08.627Z,17.42
2022-12-15T22:48:52.518Z,20.80
2022-12-15T22:51:37.463Z,23.08
2022-12-15T22:54:21.851Z,20.73
2022-12-15T22:57:05.613Z,21.05
2022-12-15T22:59:50.362Z,20.13
2022-12-15T23:02:34.771Z,18.73
2022-12-15T23:05:18.397Z,20.60
2022-12-15T23:08:01.312Z,21.25
2022-12-15T23:11:02.787Z,17.33
2022-12-15T23:13:45.700Z,20.50
2022-12-15T23:16:28.378Z,16.55
2022-12-15T23:19:23.518Z,18.30
2022-12-15T23:22:06.291Z,17.83
2022-12-15T23:24:48.948Z,20.27
2022-12-15T23:27:33.666Z,19.27
2022-12-15T23:30:16.286Z,18.10
2022-12-15T23:32:59.010Z,20.25
2022-12-15T23:35:41.648Z,18.50
2022-12-15T23:38:24.633Z,21.08
2022-12-15T23:41:07.306Z,22.85
2022-12-15T23:43:51.998Z,22.55
2022-12-15T23:46:34.645Z,22.25
2022-12-15T23:49:17.330Z,28.60
2022-12-15T23:52:00.010Z,21.27
2022-12-15T23:54:42.659Z,20.33
2022-12-15T23:57:25.338Z,21.38
